Time,TemperatureF,DewpointF,PressureIn,WindDirection,WindDirectionDegrees,WindSpeedMPH,WindSpeedGustMPH,Humidity,HourlyPrecipIn,Conditions,Clouds,dailyrainin,SoftwareType,DateUTC
2013-04-23 00:05:00,72.1,64.5,29.99,NNW,337,0.0,3.0,77,0.00,,,-99.99,WeatherLink 5.5,2013-04-23 04:05:00,
2013-04-23 00:10:00,72.4,64.8,30.00,NNW,337,1.0,5.0,77,0.00,,,-99.99,WeatherLink 5.5,2013-04-23 04:10:00,
2013-04-23 00:15:00,72.4,64.8,30.00,NNW,337,1.0,5.0,77,0.00,,,-99.99,WeatherLink 5.5,2013-04-23 04:15:00,
2013-04-23 00:20:00,72.4,64.4,30.00,NNW,337,1.0,7.0,76,0.00,,,-99.99,WeatherLink 5.5,2013-04-23 04:20:00,
2013-04-23 00:25:00,72.4,64.4,30.00,NNW,337,1.0,7.0,76,0.00,,,-99.99,WeatherLink 5.5,2013-04-23 04:25:00,
2013-04-23 00:35:00,72.5,63.4,29.99,NNW,337,1.0,4.0,73,0.00,,,-99.99,WeatherLink 5.5,2013-04-23 04:35:00,
2013-04-23 00:40:00,72.5,62.2,30.00,NNW,337,0.0,4.0,70,0.00,,,-99.99,WeatherLink 5.5,2013-04-23 04:40:00,
2013-04-23 00:45:00,72.5,62.2,30.00,NNW,337,0.0,4.0,70,0.00,,,-99.99,WeatherLink 5.5,2013-04-23 04:45:00,
2013-04-23 00:51:00,72.5,62.2,29.99,NNW,337,0.0,3.0,70,0.00,,,-99.99,WeatherLink 5.5,2013-04-23 04:51:00,
2013-04-23 00:55:00,72.4,62.5,29.98,North,-999,0.0,0.0,71,0.00,,,-99.99,WeatherLink 5.5,2013-04-23 04:55:00,
2013-04-23 01:00:00,72.4,62.5,29.98,North,-999,0.0,0.0,71,0.00,,,-99.99,WeatherLink 5.5,2013-04-23 05:00:00,
2013-04-23 01:05:00,72.3,62.0,29.99,North,-999,0.0,0.0,70,0.00,,,-99.99,WeatherLink 5.5,2013-04-23 05:05:00,
2013-04-23 01:10:00,72.1,61.8,29.98,North,-999,0.0,0.0,70,0.00,,,-99.99,WeatherLink 5.5,2013-04-23 05:10:00,
2013-04-23 01:15:00,72.1,61.8,29.98,North,-999,0.0,0.0,70,0.00,,,-99.99,WeatherLink 5.5,2013-04-23 05:15:00,
2013-04-23 01:26:00,72.1,63.4,29.98,North,-999,0.0,0.0,74,0.00,,,-99.99,WeatherLink 5.5,2013-04-23 05:26:00,
2013-04-23 01:30:00,71.7,61.8,29.98,North,-999,0.0,0.0,71,0.00,,,-99.99,WeatherLink 5.5,2013-04-23 05:30:00,
2013-04-23 01:35:00,71.7,61.8,29.98,North,-999,0.0,0.0,71,0.00,,,-99.99,WeatherLink 5.5,2013-04-23 05:35:00,
2013-04-23 01:40:00,71.7,60.6,29.98,NNW,337,0.0,3.0,68,0.00,,,-99.99,WeatherLink 5.5,2013-04-23 05:40:00,
2013-04-23 01:50:00,71.9,61.2,29.97,North,-999,0.0,0.0,69,0.00,,,-99.99,WeatherLink 5.5,2013-04-23 05:50:00,
2013-04-23 01:55:00,71.8,61.9,29.97,North,-999,0.0,0.0,71,0.00,,,-99.99,WeatherLink 5.5,2013-04-23 05:55:00,
2013-04-23 02:00:00,71.3,59.8,29.97,North,-999,0.0,0.0,67,0.00,,,-99.99,WeatherLink 5.5,2013-04-23 06:00:00,
2013-04-23 02:05:00,71.3,59.8,29.97,North,-999,0.0,0.0,67,0.00,,,-99.99,WeatherLink 5.5,2013-04-23 06:05:00,
2013-04-23 02:10:00,71.1,58.7,29.97,NNW,337,0.0,2.0,65,0.00,,,-99.99,WeatherLink 5.5,2013-04-23 06:10:00,
2013-04-23 02:15:00,71.1,59.2,29.98,North,-999,0.0,0.0,66,0.00,,,-99.99,WeatherLink 5.5,2013-04-23 06:15:00,
2013-04-23 02:20:00,71.1,59.2,29.98,North,-999,0.0,0.0,66,0.00,,,-99.99,WeatherLink 5.5,2013-04-23 06:20:00,
2013-04-23 02:25:00,70.8,59.3,29.98,North,-999,0.0,0.0,67,0.00,,,-99.99,WeatherLink 5.5,2013-04-23 06:25:00,
2013-04-23 02:30:00,70.6,59.1,30.00,North,-999,0.0,0.0,67,0.00,,,-99.99,WeatherLink 5.5,2013-04-23 06:30:00,
2013-04-23 02:35:00,70.6,59.1,30.00,North,-999,0.0,0.0,67,0.00,,,-99.99,WeatherLink 5.5,2013-04-23 06:35:00,
2013-04-23 02:45:00,70.3,60.1,29.94,North,-999,0.0,0.0,70,0.00,,,-99.99,WeatherLink 5.5,2013-04-23 06:45:00,
2013-04-23 02:50:00,70.1,61.4,29.94,North,-999,0.0,0.0,74,0.00,,,-99.99,WeatherLink 5.5,2013-04-23 06:50:00,
2013-04-23 02:55:00,70.1,61.4,29.94,North,-999,0.0,0.0,74,0.00,,,-99.99,WeatherLink 5.5,2013-04-23 06:55:00,
2013-04-23 03:00:00,69.9,62.0,29.95,NNW,337,0.0,2.0,76,0.00,,,-99.99,WeatherLink 5.5,2013-04-23 07:00:00,
2013-04-23 03:10:00,69.7,62.9,29.96,NNW,337,0.0,3.0,79,0.00,,,-99.99,WeatherLink 5.5,2013-04-23 07:10:00,
2013-04-23 03:11:00,69.8,62.6,29.92,NNW,337,0.0,2.0,78,0.00,,,-99.99,WeatherLink 5.5,2013-04-23 07:11:00,
2013-04-23 03:15:00,69.6,63.2,29.94,NNW,337,0.0,1.0,80,0.00,,,-99.99,WeatherLink 5.5,2013-04-23 07:15:00,
2013-04-23 03:20:00,69.6,63.2,29.94,NNW,337,0.0,1.0,80,0.00,,,-99.99,WeatherLink 5.5,2013-04-23 07:20:00,
2013-04-23 03:30:00,69.4,63.0,29.94,NNW,337,0.0,4.0,80,0.00,,,-99.99,WeatherLink 5.5,2013-04-23 07:30:00,
2013-04-23 03:35:00,69.3,62.9,29.94,NNW,337,1.0,4.0,80,0.00,,,-99.99,WeatherLink 5.5,2013-04-23 07:35:00,
2013-04-23 03:40:00,69.1,63.0,29.94,North,-999,0.0,0.0,81,0.00,,,-99.99,WeatherLink 5.5,2013-04-23 07:40:00,
2013-04-23 03:45:00,69.1,63.0,29.94,North,-999,0.0,0.0,81,0.00,,,-99.99,WeatherLink 5.5,2013-04-23 07:45:00,
2013-04-23 03:50:00,69.0,62.9,29.94,NNW,337,0.0,3.0,81,0.00,,,-99.99,WeatherLink 5.5,2013-04-23 07:50:00,
2013-04-23 04:00:00,68.8,62.7,29.94,NNW,337,0.0,1.0,81,0.00,,,-99.99,WeatherLink 5.5,2013-04-23 08:00:00,
2013-04-23 04:05:00,68.6,62.5,29.93,North,-999,0.0,0.0,81,0.00,,,-99.99,WeatherLink 5.5,2013-04-23 08:05:00,
2013-04-23 04:10:00,68.6,62.5,29.93,North,-999,0.0,0.0,81,0.00,,,-99.99,WeatherLink 5.5,2013-04-23 08:10:00,
2013-04-23 04:20:00,68.3,62.2,29.94,North,-999,0.0,0.0,81,0.00,,,-99.99,WeatherLink 5.5,2013-04-23 08:20:00,
2013-04-23 04:21:00,68.4,62.3,29.93,North,-999,0.0,0.0,81,0.00,,,-99.99,WeatherLink 5.5,2013-04-23 08:21:00,
2013-04-23 04:25:00,68.3,62.2,29.94,NNW,337,0.0,3.0,81,0.00,,,-99.99,WeatherLink 5.5,2013-04-23 08:25:00,
2013-04-23 04:30:00,68.3,62.2,29.94,NNW,337,0.0,3.0,81,0.00,,,-99.99,WeatherLink 5.5,2013-04-23 08:30:00,
2013-04-23 04:35:00,68.3,62.2,29.94,NNW,337,0.0,4.0,81,0.00,,,-99.99,WeatherLink 5.5,2013-04-23 08:35:00,
2013-04-23 04:45:00,68.3,62.2,29.94,NNW,337,1.0,3.0,81,0.00,,,-99.99,WeatherLink 5.5,2013-04-23 08:45:00,
2013-04-23 04:55:00,68.3,62.2,29.93,NNW,337,1.0,4.0,81,0.00,,,-99.99,WeatherLink 5.5,2013-04-23 08:55:00,
2013-04-23 05:05:00,68.4,-99.9,29.93,NNW,337,1.0,5.0,-999,0.00,,,-99.99,WeatherLink 5.5,2013-04-23 09:05:00,
2013-04-23 05:15:00,68.3,-99.9,29.94,North,-999,0.0,0.0,-999,0.00,,,-99.99,WeatherLink 5.5,2013-04-23 09:15:00,
2013-04-23 05:20:00,68.4,62.3,29.94,NNW,337,0.0,4.0,81,0.00,,,-99.99,WeatherLink 5.5,2013-04-23 09:20:00,
2013-04-23 05:25:00,68.4,62.3,29.94,NNW,337,0.0,4.0,81,0.00,,,-99.99,WeatherLink 5.5,2013-04-23 09:25:00,
2013-04-23 05:30:00,68.3,-99.9,29.94,NNW,337,1.0,5.0,-999,0.00,,,-99.99,WeatherLink 5.5,2013-04-23 09:30:00,
2013-04-23 05:35:00,68.3,-99.9,29.94,NNW,337,1.0,5.0,-999,0.00,,,-99.99,WeatherLink 5.5,2013-04-23 09:35:00,
2013-04-23 05:40:00,68.3,-99.9,29.94,NNW,337,2.0,7.0,-999,0.00,,,-99.99,WeatherLink 5.5,2013-04-23 09:40:00,
2013-04-23 05:50:00,68.2,-99.9,29.94,NNW,337,0.0,4.0,-999,0.00,,,-99.99,WeatherLink 5.5,2013-04-23 09:50:00,
2013-04-23 05:55:00,68.3,62.2,29.94,NNW,337,1.0,4.0,81,0.00,,,-99.99,WeatherLink 5.5,2013-04-23 09:55:00,
2013-04-23 06:00:00,68.3,62.2,29.94,NNW,337,1.0,4.0,81,0.00,,,-99.99,WeatherLink 5.5,2013-04-23 10:00:00,
2013-04-23 06:05:00,68.3,62.2,29.95,North,-999,0.0,0.0,81,0.00,,,-99.99,WeatherLink 5.5,2013-04-23 10:05:00,
2013-04-23 06:15:00,68.2,-99.9,29.94,NNW,337,0.0,3.0,-999,0.00,,,-99.99,WeatherLink 5.5,2013-04-23 10:15:00,
2013-04-23 06:20:00,68.2,-99.9,29.95,North,-999,0.0,0.0,-999,0.00,,,-99.99,WeatherLink 5.5,2013-04-23 10:20:00,
2013-04-23 06:25:00,68.2,-99.9,29.95,North,-999,0.0,0.0,-999,0.00,,,-99.99,WeatherLink 5.5,2013-04-23 10:25:00,
2013-04-23 06:30:00,68.1,-99.9,29.96,NNW,337,0.0,2.0,-999,0.00,,,-99.99,WeatherLink 5.5,2013-04-23 10:30:00,
2013-04-23 06:35:00,68.1,-99.9,29.96,NNW,337,0.0,2.0,-999,0.00,,,-99.99,WeatherLink 5.5,2013-04-23 10:35:00,
2013-04-23 06:45:00,68.0,61.9,29.95,North,-999,0.0,0.0,81,0.00,,,-99.99,WeatherLink 5.5,2013-04-23 10:45:00,
2013-04-23 06:50:00,68.1,62.0,29.96,NNW,337,0.0,1.0,81,0.00,,,-99.99,WeatherLink 5.5,2013-04-23 10:50:00,
2013-04-23 06:55:00,68.4,-99.9,29.96,NNW,337,0.0,5.0,-999,0.00,,,-99.99,WeatherLink 5.5,2013-04-23 10:55:00,
2013-04-23 07:00:00,68.4,-99.9,29.96,NNW,337,0.0,5.0,-999,0.00,,,-99.99,WeatherLink 5.5,2013-04-23 11:00:00,
2013-04-23 07:05:00,68.6,62.5,29.96,NNW,337,0.0,5.0,81,0.00,,,-99.99,WeatherLink 5.5,2013-04-23 11:05:00,
2013-04-23 07:10:00,68.9,62.8,29.96,NNW,337,0.0,2.0,81,0.00,,,-99.99,WeatherLink 5.5,2013-04-23 11:10:00,
2013-04-23 07:15:00,68.9,62.8,29.96,NNW,337,0.0,2.0,81,0.00,,,-99.99,WeatherLink 5.5,2013-04-23 11:15:00,
2013-04-23 07:20:00,69.2,-99.9,29.96,North,-999,0.0,0.0,-999,0.00,,,-99.99,WeatherLink 5.5,2013-04-23 11:20:00,
2013-04-23 07:25:00,69.5,-99.9,29.96,North,-999,0.0,0.0,-999,0.00,,,-99.99,WeatherLink 5.5,2013-04-23 11:25:00,
2013-04-23 07:30:00,69.5,-99.9,29.96,North,-999,0.0,0.0,-999,0.00,,,-99.99,WeatherLink 5.5,2013-04-23 11:30:00,
2013-04-23 07:35:00,69.9,-99.9,29.97,North,-999,0.0,0.0,-999,0.00,,,-99.99,WeatherLink 5.5,2013-04-23 11:35:00,
2013-04-23 07:45:00,70.9,64.8,29.97,North,-999,0.0,1.0,81,0.00,,,-99.99,WeatherLink 5.5,2013-04-23 11:45:00,
2013-04-23 07:55:00,71.9,-99.9,29.97,NNW,337,0.0,1.0,-999,0.00,,,-99.99,WeatherLink 5.5,2013-04-23 11:55:00,
2013-04-23 08:00:00,72.9,-99.9,29.98,NNW,337,0.0,3.0,-999,0.00,,,-99.99,WeatherLink 5.5,2013-04-23 12:00:00,
2013-04-23 08:05:00,72.9,-99.9,29.98,NNW,337,0.0,3.0,-999,0.00,,,-99.99,WeatherLink 5.5,2013-04-23 12:05:00,
2013-04-23 08:15:00,73.8,67.6,29.98,North,-999,0.0,1.0,81,0.00,,,-99.99,WeatherLink 5.5,2013-04-23 12:15:00,
2013-04-23 08:20:00,74.3,68.1,29.98,NNW,337,0.0,1.0,81,0.00,,,-99.99,WeatherLink 5.5,2013-04-23 12:20:00,
2013-04-23 08:25:00,74.3,68.1,29.98,NNW,337,0.0,1.0,81,0.00,,,-99.99,WeatherLink 5.5,2013-04-23 12:25:00,
2013-04-23 08:35:00,75.1,68.9,29.99,NNW,337,1.0,6.0,81,0.00,,,-99.99,WeatherLink 5.5,2013-04-23 12:35:00,
2013-04-23 08:45:00,76.2,70.3,29.98,NNE,22,4.0,13.0,82,0.00,,,-99.99,WeatherLink 5.5,2013-04-23 12:45:00,
2013-04-23 08:50:00,77.0,77.0,29.99,NNE,22,4.0,11.0,100,0.00,,,-99.99,WeatherLink 5.5,2013-04-23 12:50:00,
2013-04-23 08:55:00,77.0,77.0,29.99,NNE,22,4.0,11.0,100,0.00,,,-99.99,WeatherLink 5.5,2013-04-23 12:55:00,
2013-04-23 09:00:00,77.3,77.3,29.99,NNE,22,3.0,12.0,100,0.00,,,-99.99,WeatherLink 5.5,2013-04-23 13:00:00,
2013-04-23 09:05:00,77.7,77.7,30.00,NNE,22,5.0,12.0,100,0.00,,,-99.99,WeatherLink 5.5,2013-04-23 13:05:00,
2013-04-23 09:10:00,77.7,77.7,30.00,NNE,22,5.0,12.0,100,0.00,,,-99.99,WeatherLink 5.5,2013-04-23 13:10:00,
2013-04-23 09:15:00,78.4,78.4,30.00,NNE,22,3.0,12.0,100,0.00,,,-99.99,WeatherLink 5.5,2013-04-23 13:15:00,
2013-04-23 09:20:00,78.4,78.4,30.00,NNE,22,3.0,12.0,100,0.00,,,-99.99,WeatherLink 5.5,2013-04-23 13:20:00,
2013-04-23 09:25:00,78.2,78.2,30.00,NNE,22,7.0,16.0,100,0.00,,,-99.99,WeatherLink 5.5,2013-04-23 13:25:00,
2013-04-23 09:26:00,78.2,78.2,30.00,NNE,22,7.0,16.0,100,0.00,,,-99.99,WeatherLink 5.5,2013-04-23 13:26:00,
2013-04-23 09:35:00,77.9,77.9,30.01,NNE,22,8.0,15.0,100,0.00,,,-99.99,WeatherLink 5.5,2013-04-23 13:35:00,
2013-04-23 09:46:00,78.5,78.5,30.01,NNE,22,9.0,15.0,100,0.00,,,-99.99,WeatherLink 5.5,2013-04-23 13:46:00,
2013-04-23 09:50:00,78.9,78.9,30.01,NNE,22,6.0,13.0,100,0.00,,,-99.99,WeatherLink 5.5,2013-04-23 13:50:00,
2013-04-23 09:55:00,78.9,78.9,30.01,NNE,22,6.0,13.0,100,0.00,,,-99.99,WeatherLink 5.5,2013-04-23 13:55:00,
2013-04-23 10:00:00,79.4,79.4,30.02,NNE,22,7.0,16.0,100,0.00,,,-99.99,WeatherLink 5.5,2013-04-23 14:00:00,
2013-04-23 10:05:00,79.8,79.8,30.02,NE,45,9.0,19.0,100,0.00,,,-99.99,WeatherLink 5.5,2013-04-23 14:05:00,
2013-04-23 10:10:00,79.8,79.8,30.02,NE,45,9.0,19.0,100,0.00,,,-99.99,WeatherLink 5.5,2013-04-23 14:10:00,
2013-04-23 10:15:00,79.9,79.9,30.02,NE,45,4.0,12.0,100,0.00,,,-99.99,WeatherLink 5.5,2013-04-23 14:15:00,
2013-04-23 10:20:00,80.6,80.6,30.02,NE,45,7.0,16.0,100,0.00,,,-99.99,WeatherLink 5.5,2013-04-23 14:20:00,
2013-04-23 10:21:00,80.6,80.6,30.02,NE,45,7.0,16.0,100,0.00,,,-99.99,WeatherLink 5.5,2013-04-23 14:21:00,
2013-04-23 10:30:00,80.8,80.8,30.02,NNE,22,6.0,16.0,100,0.00,,,-99.99,WeatherLink 5.5,2013-04-23 14:30:00,
2013-04-23 10:40:00,80.8,80.8,30.03,NNE,22,8.0,17.0,100,0.00,,,-99.99,WeatherLink 5.5,2013-04-23 14:40:00,
2013-04-23 10:50:00,80.2,80.2,30.03,NNE,22,8.0,17.0,100,0.00,,,-99.99,WeatherLink 5.5,2013-04-23 14:50:00,
2013-04-23 10:55:00,79.9,79.9,30.03,NNE,22,5.0,14.0,100,0.00,,,-99.99,WeatherLink 5.5,2013-04-23 14:55:00,
2013-04-23 11:00:00,79.9,79.9,30.03,NNE,22,5.0,14.0,100,0.00,,,-99.99,WeatherLink 5.5,2013-04-23 15:00:00,
2013-04-23 11:05:00,80.5,80.5,30.03,NNE,22,10.0,18.0,100,0.00,,,-99.99,WeatherLink 5.5,2013-04-23 15:05:00,
2013-04-23 11:10:00,80.9,80.9,30.04,NNE,22,7.0,19.0,100,0.00,,,-99.99,WeatherLink 5.5,2013-04-23 15:10:00,
2013-04-23 11:15:00,81.0,81.0,30.04,NNE,22,7.0,19.0,100,0.00,,,-99.99,WeatherLink 5.5,2013-04-23 15:15:00,
2013-04-23 11:20:00,81.0,81.0,30.04,NNE,22,7.0,19.0,100,0.00,,,-99.99,WeatherLink 5.5,2013-04-23 15:20:00,
2013-04-23 11:25:00,81.5,81.5,30.04,NNE,22,8.0,17.0,100,0.00,,,-99.99,WeatherLink 5.5,2013-04-23 15:25:00,
2013-04-23 11:35:00,80.9,80.9,30.04,NE,45,11.0,19.0,100,0.00,,,-99.99,WeatherLink 5.5,2013-04-23 15:35:00,
2013-04-23 11:40:00,81.0,81.0,30.04,NNE,22,11.0,18.0,100,0.00,,,-99.99,WeatherLink 5.5,2013-04-23 15:40:00,
2013-04-23 11:45:00,81.0,81.0,30.04,NNE,22,11.0,18.0,100,0.00,,,-99.99,WeatherLink 5.5,2013-04-23 15:45:00,
2013-04-23 11:50:00,81.9,81.9,30.04,NE,45,8.0,16.0,100,0.00,,,-99.99,WeatherLink 5.5,2013-04-23 15:50:00,
2013-04-23 11:55:00,81.9,81.9,30.04,NE,45,8.0,16.0,100,0.00,,,-99.99,WeatherLink 5.5,2013-04-23 15:55:00,
2013-04-23 12:05:00,81.5,81.5,30.04,NE,45,6.0,17.0,100,0.00,,,-99.99,WeatherLink 5.5,2013-04-23 16:05:00,
2013-04-23 12:10:00,81.6,81.6,30.04,NE,45,6.0,15.0,100,0.00,,,-99.99,WeatherLink 5.5,2013-04-23 16:10:00,
2013-04-23 12:15:00,81.6,81.6,30.04,NE,45,6.0,15.0,100,0.00,,,-99.99,WeatherLink 5.5,2013-04-23 16:15:00,
2013-04-23 12:20:00,82.0,-99.9,30.04,NNE,22,8.0,16.0,-999,0.00,,,-99.99,WeatherLink 5.5,2013-04-23 16:20:00,
2013-04-23 12:30:00,82.5,82.5,30.03,NE,45,8.0,15.0,100,0.00,,,-99.99,WeatherLink 5.5,2013-04-23 16:30:00,
2013-04-23 12:40:00,82.2,82.2,30.03,NE,45,10.0,21.0,100,0.00,,,-99.99,WeatherLink 5.5,2013-04-23 16:40:00,
2013-04-23 12:41:00,82.8,82.8,30.03,NNE,22,8.0,17.0,100,0.00,,,-99.99,WeatherLink 5.5,2013-04-23 16:41:00,
2013-04-23 12:45:00,82.1,82.1,30.03,NE,45,11.0,19.0,100,0.00,,,-99.99,WeatherLink 5.5,2013-04-23 16:45:00,
2013-04-23 12:50:00,82.1,82.1,30.03,NE,45,11.0,19.0,100,0.00,,,-99.99,WeatherLink 5.5,2013-04-23 16:50:00,
2013-04-23 12:56:00,82.4,82.4,30.03,NE,45,9.0,17.0,100,0.00,,,-99.99,WeatherLink 5.5,2013-04-23 16:56:00,
2013-04-23 13:00:00,82.9,81.6,30.02,NNE,22,8.0,17.0,96,0.00,,,-99.99,WeatherLink 5.5,2013-04-23 17:00:00,
2013-04-23 13:05:00,82.9,81.6,30.02,NNE,22,8.0,17.0,96,0.00,,,-99.99,WeatherLink 5.5,2013-04-23 17:05:00,
2013-04-23 13:10:00,82.8,80.9,30.02,NNE,22,10.0,18.0,94,0.00,,,-99.99,WeatherLink 5.5,2013-04-23 17:10:00,
2013-04-23 13:20:00,83.2,81.3,30.02,NE,45,10.0,18.0,94,0.00,,,-99.99,WeatherLink 5.5,2013-04-23 17:20:00,
2013-04-23 13:30:00,83.0,79.8,30.02,NE,45,8.0,18.0,90,0.00,,,-99.99,WeatherLink 5.5,2013-04-23 17:30:00,
2013-04-23 13:40:00,83.3,79.4,30.02,NE,45,7.0,15.0,88,0.00,,,-99.99,WeatherLink 5.5,2013-04-23 17:40:00,
2013-04-23 13:45:00,82.9,79.0,30.01,NE,45,7.0,17.0,88,0.00,,,-99.99,WeatherLink 5.5,2013-04-23 17:45:00,
2013-04-23 13:50:00,82.9,79.0,30.01,NE,45,7.0,17.0,88,0.00,,,-99.99,WeatherLink 5.5,2013-04-23 17:50:00,
2013-04-23 13:55:00,82.0,78.1,30.01,NE,45,9.0,17.0,88,0.00,,,-99.99,WeatherLink 5.5,2013-04-23 17:55:00,
2013-04-23 14:00:00,82.0,78.1,30.01,NE,45,9.0,17.0,88,0.00,,,-99.99,WeatherLink 5.5,2013-04-23 18:00:00,
2013-04-23 14:11:00,82.8,77.8,30.01,NNE,22,6.0,13.0,85,0.00,,,-99.99,WeatherLink 5.5,2013-04-23 18:11:00,
2013-04-23 14:15:00,83.7,77.2,30.01,NE,45,5.0,14.0,81,0.00,,,-99.99,WeatherLink 5.5,2013-04-23 18:15:00,
2013-04-23 14:20:00,83.7,77.2,30.01,NE,45,5.0,14.0,81,0.00,,,-99.99,WeatherLink 5.5,2013-04-23 18:20:00,
2013-04-23 14:25:00,83.8,77.0,30.01,NNE,22,6.0,14.0,80,0.00,,,-99.99,WeatherLink 5.5,2013-04-23 18:25:00,
2013-04-23 14:35:00,83.5,77.4,30.00,NE,45,8.0,15.0,82,0.00,,,-99.99,WeatherLink 5.5,2013-04-23 18:35:00,
2013-04-23 14:40:00,83.6,76.4,30.01,NE,45,8.0,18.0,79,0.00,,,-99.99,WeatherLink 5.5,2013-04-23 18:40:00,
2013-04-23 14:45:00,83.6,76.4,30.01,NE,45,8.0,18.0,79,0.00,,,-99.99,WeatherLink 5.5,2013-04-23 18:45:00,
2013-04-23 14:50:00,83.1,76.7,30.01,NE,45,10.0,17.0,81,0.00,,,-99.99,WeatherLink 5.5,2013-04-23 18:50:00,
2013-04-23 15:00:00,83.5,77.1,30.01,NNE,22,5.0,14.0,81,0.00,,,-99.99,WeatherLink 5.5,2013-04-23 19:00:00,
2013-04-23 15:10:00,83.9,75.5,30.00,NE,45,9.0,17.0,76,0.00,,,-99.99,WeatherLink 5.5,2013-04-23 19:10:00,
2013-04-23 15:11:00,84.3,76.7,30.01,NNE,22,5.0,14.0,78,0.00,,,-99.99,WeatherLink 5.5,2013-04-23 19:11:00,
2013-04-23 15:15:00,83.0,75.0,30.00,NNE,22,8.0,21.0,77,0.00,,,-99.99,WeatherLink 5.5,2013-04-23 19:15:00,
2013-04-23 15:20:00,83.0,75.0,30.00,NNE,22,8.0,21.0,77,0.00,,,-99.99,WeatherLink 5.5,2013-04-23 19:20:00,
2013-04-23 15:25:00,82.3,75.1,30.01,NNE,22,4.0,12.0,79,0.00,,,-99.99,WeatherLink 5.5,2013-04-23 19:25:00,
2013-04-23 15:31:00,82.3,75.1,30.01,NNE,22,4.0,12.0,79,0.00,,,-99.99,WeatherLink 5.5,2013-04-23 19:31:00,
2013-04-23 15:40:00,82.8,75.2,30.00,NNE,22,7.0,16.0,78,0.00,,,-99.99,WeatherLink 5.5,2013-04-23 19:40:00,
2013-04-23 15:50:00,82.9,74.6,30.00,NNE,22,7.0,17.0,76,0.00,,,-99.99,WeatherLink 5.5,2013-04-23 19:50:00,
2013-04-23 15:55:00,82.4,74.8,30.00,NNE,22,6.0,15.0,78,0.00,,,-99.99,WeatherLink 5.5,2013-04-23 19:55:00,
2013-04-23 16:00:00,82.4,74.8,30.00,NNE,22,6.0,15.0,78,0.00,,,-99.99,WeatherLink 5.5,2013-04-23 20:00:00,
2013-04-23 16:05:00,82.4,74.1,30.00,NNE,22,8.0,16.0,76,0.00,,,-99.99,WeatherLink 5.5,2013-04-23 20:05:00,
2013-04-23 16:10:00,82.2,75.0,30.00,NE,45,7.0,16.0,79,0.00,,,-99.99,WeatherLink 5.5,2013-04-23 20:10:00,
2013-04-23 16:15:00,82.2,75.0,30.00,NE,45,7.0,16.0,79,0.00,,,-99.99,WeatherLink 5.5,2013-04-23 20:15:00,
2013-04-23 16:25:00,81.5,74.4,29.99,NE,45,8.0,17.0,79,0.00,,,-99.99,WeatherLink 5.5,2013-04-23 20:25:00,
2013-04-23 16:30:00,81.4,74.6,30.00,NE,45,7.0,14.0,80,0.00,,,-99.99,WeatherLink 5.5,2013-04-23 20:30:00,
2013-04-23 16:35:00,81.4,74.6,30.00,NE,45,7.0,14.0,80,0.00,,,-99.99,WeatherLink 5.5,2013-04-23 20:35:00,
2013-04-23 16:40:00,80.9,74.5,29.99,NNE,22,8.0,19.0,81,0.00,,,-99.99,WeatherLink 5.5,2013-04-23 20:40:00,
2013-04-23 16:45:00,80.9,74.5,29.99,NNE,22,8.0,19.0,81,0.00,,,-99.99,WeatherLink 5.5,2013-04-23 20:45:00,
2013-04-23 16:50:00,80.8,75.5,29.99,NNE,22,9.0,17.0,84,0.00,,,-99.99,WeatherLink 5.5,2013-04-23 20:50:00,
2013-04-23 16:55:00,81.0,75.7,29.99,NNE,22,8.0,19.0,84,0.00,,,-99.99,WeatherLink 5.5,2013-04-23 20:55:00,
2013-04-23 17:00:00,81.0,75.7,29.99,NNE,22,8.0,19.0,84,0.00,,,-99.99,WeatherLink 5.5,2013-04-23 21:00:00,
2013-04-23 17:05:00,80.7,74.3,29.99,NNE,22,7.0,14.0,81,0.00,,,-99.99,WeatherLink 5.5,2013-04-23 21:05:00,
2013-04-23 17:10:00,80.7,74.3,29.99,NNE,22,7.0,14.0,81,0.00,,,-99.99,WeatherLink 5.5,2013-04-23 21:10:00,
2013-04-23 17:15:00,80.5,74.5,29.99,NNE,22,7.0,16.0,82,0.00,,,-99.99,WeatherLink 5.5,2013-04-23 21:15:00,
2013-04-23 17:25:00,80.8,73.3,29.99,NNE,22,6.0,13.0,78,0.00,,,-99.99,WeatherLink 5.5,2013-04-23 21:25:00,
2013-04-23 17:35:00,80.4,72.9,29.99,NNE,22,7.0,15.0,78,0.00,,,-99.99,WeatherLink 5.5,2013-04-23 21:35:00,
2013-04-23 17:40:00,80.0,73.6,30.00,NE,45,8.0,15.0,81,0.00,,,-99.99,WeatherLink 5.5,2013-04-23 21:40:00,
2013-04-23 17:45:00,80.0,73.6,30.00,NE,45,8.0,15.0,81,0.00,,,-99.99,WeatherLink 5.5,2013-04-23 21:45:00,
2013-04-23 17:50:00,79.1,72.0,30.00,NNE,22,7.0,14.0,79,0.00,,,-99.99,WeatherLink 5.5,2013-04-23 21:50:00,
2013-04-23 17:55:00,79.1,72.0,30.00,NNE,22,7.0,14.0,79,0.00,,,-99.99,WeatherLink 5.5,2013-04-23 21:55:00,
2013-04-23 18:05:00,79.3,73.0,30.00,NNE,22,4.0,13.0,81,0.00,,,-99.99,WeatherLink 5.5,2013-04-23 22:05:00,
2013-04-23 18:10:00,78.9,72.6,30.00,NNE,22,8.0,18.0,81,0.00,,,-99.99,WeatherLink 5.5,2013-04-23 22:10:00,
2013-04-23 18:15:00,78.9,72.6,30.00,NNE,22,8.0,18.0,81,0.00,,,-99.99,WeatherLink 5.5,2013-04-23 22:15:00,
2013-04-23 18:20:00,78.2,69.2,30.00,NNE,22,8.0,17.0,74,0.00,,,-99.99,WeatherLink 5.5,2013-04-23 22:20:00,
2013-04-23 18:25:00,78.2,69.2,30.00,NNE,22,8.0,17.0,74,0.00,,,-99.99,WeatherLink 5.5,2013-04-23 22:25:00,
2013-04-23 18:30:00,77.9,69.7,30.00,NNE,22,6.0,15.0,76,0.00,,,-99.99,WeatherLink 5.5,2013-04-23 22:30:00,
2013-04-23 18:35:00,77.9,69.7,30.00,NNE,22,6.0,15.0,76,0.00,,,-99.99,WeatherLink 5.5,2013-04-23 22:35:00,
2013-04-23 18:40:00,77.5,71.6,30.01,NNE,22,5.0,12.0,82,0.00,,,-99.99,WeatherLink 5.5,2013-04-23 22:40:00,
2013-04-23 18:45:00,77.4,71.8,30.01,NE,45,4.0,13.0,83,0.00,,,-99.99,WeatherLink 5.5,2013-04-23 22:45:00,
2013-04-23 18:50:00,77.4,71.8,30.01,NE,45,4.0,13.0,83,0.00,,,-99.99,WeatherLink 5.5,2013-04-23 22:50:00,
2013-04-23 18:55:00,77.3,72.1,30.01,North,0,5.0,11.0,84,0.00,,,-99.99,WeatherLink 5.5,2013-04-23 22:55:00,
2013-04-23 19:01:00,77.1,72.9,30.01,NNE,22,7.0,13.0,87,0.00,,,-99.99,WeatherLink 5.5,2013-04-23 23:01:00,
2013-04-23 19:10:00,76.9,73.1,30.01,NNE,22,6.0,11.0,88,0.00,,,-99.99,WeatherLink 5.5,2013-04-23 23:10:00,
2013-04-23 19:16:00,76.8,74.6,30.01,ENE,67,3.0,13.0,93,0.00,,,-99.99,WeatherLink 5.5,2013-04-23 23:16:00,
2013-04-23 19:20:00,76.8,74.9,30.01,NNE,22,7.0,15.0,94,0.00,,,-99.99,WeatherLink 5.5,2013-04-23 23:20:00,
2013-04-23 19:25:00,76.8,74.9,30.01,NNE,22,7.0,15.0,94,0.00,,,-99.99,WeatherLink 5.5,2013-04-23 23:25:00,
2013-04-23 19:30:00,76.6,74.4,30.02,NNE,22,6.0,13.0,93,0.00,,,-99.99,WeatherLink 5.5,2013-04-23 23:30:00,
2013-04-23 19:35:00,76.3,74.4,30.02,NNE,22,4.0,10.0,94,0.00,,,-99.99,WeatherLink 5.5,2013-04-23 23:35:00,
2013-04-23 19:40:00,76.3,74.4,30.02,NNE,22,4.0,10.0,94,0.00,,,-99.99,WeatherLink 5.5,2013-04-23 23:40:00,
2013-04-23 19:45:00,76.1,74.6,30.02,NNE,22,5.0,14.0,95,0.00,,,-99.99,WeatherLink 5.5,2013-04-23 23:45:00,
2013-04-23 19:56:00,75.8,74.6,30.03,NNE,22,3.0,11.0,96,0.00,,,-99.99,WeatherLink 5.5,2013-04-23 23:56:00,
2013-04-23 20:00:00,75.5,74.6,30.03,NNE,22,3.0,11.0,97,0.00,,,-99.99,WeatherLink 5.5,2013-04-24 00:00:00,
2013-04-23 20:05:00,75.5,74.6,30.03,NNE,22,3.0,11.0,97,0.00,,,-99.99,WeatherLink 5.5,2013-04-24 00:05:00,
2013-04-23 20:10:00,75.4,74.5,30.03,NNE,22,4.0,12.0,97,0.00,,,-99.99,WeatherLink 5.5,2013-04-24 00:10:00,
2013-04-23 20:20:00,75.2,74.6,30.03,NNE,22,3.0,9.0,98,0.00,,,-99.99,WeatherLink 5.5,2013-04-24 00:20:00,
2013-04-23 20:25:00,75.1,74.8,30.04,NNE,22,4.0,14.0,99,0.00,,,-99.99,WeatherLink 5.5,2013-04-24 00:25:00,
2013-04-23 20:30:00,75.1,74.8,30.04,NNE,22,4.0,14.0,99,0.00,,,-99.99,WeatherLink 5.5,2013-04-24 00:30:00,
2013-04-23 20:35:00,75.0,74.4,30.04,NNE,22,3.0,11.0,98,0.00,,,-99.99,WeatherLink 5.5,2013-04-24 00:35:00,
2013-04-23 20:45:00,75.0,75.0,30.04,NNE,22,2.0,8.0,100,0.00,,,-99.99,WeatherLink 5.5,2013-04-24 00:45:00,
2013-04-23 20:50:00,74.8,74.8,30.04,NNE,22,2.0,8.0,100,0.00,,,-99.99,WeatherLink 5.5,2013-04-24 00:50:00,
2013-04-23 20:55:00,74.8,74.8,30.05,NE,45,2.0,9.0,100,0.00,,,-99.99,WeatherLink 5.5,2013-04-24 00:55:00,
2013-04-23 21:00:00,74.8,74.8,30.05,NE,45,2.0,9.0,100,0.00,,,-99.99,WeatherLink 5.5,2013-04-24 01:00:00,
2013-04-23 21:05:00,74.9,74.9,30.05,NNE,22,5.0,11.0,100,0.00,,,-99.99,WeatherLink 5.5,2013-04-24 01:05:00,
2013-04-23 21:16:00,75.2,75.2,30.05,NNE,22,5.0,15.0,100,0.00,,,-99.99,WeatherLink 5.5,2013-04-24 01:16:00,
2013-04-23 21:25:00,75.1,75.1,30.05,NNE,22,4.0,12.0,100,0.00,,,-99.99,WeatherLink 5.5,2013-04-24 01:25:00,
2013-04-23 21:30:00,75.0,75.0,30.05,NNE,22,4.0,11.0,100,0.00,,,-99.99,WeatherLink 5.5,2013-04-24 01:30:00,
2013-04-23 21:35:00,74.8,74.8,30.06,NNE,22,1.0,6.0,100,0.00,,,-99.99,WeatherLink 5.5,2013-04-24 01:35:00,
2013-04-23 21:40:00,74.8,74.8,30.06,NNE,22,1.0,6.0,100,0.00,,,-99.99,WeatherLink 5.5,2013-04-24 01:40:00,
2013-04-23 21:45:00,74.8,74.8,30.06,NNE,22,5.0,14.0,100,0.00,,,-99.99,WeatherLink 5.5,2013-04-24 01:45:00,
2013-04-23 21:50:00,74.7,74.7,30.06,NNE,22,6.0,16.0,100,0.00,,,-99.99,WeatherLink 5.5,2013-04-24 01:50:00,
2013-04-23 21:55:00,74.7,74.7,30.06,NNE,22,6.0,16.0,100,0.00,,,-99.99,WeatherLink 5.5,2013-04-24 01:55:00,
2013-04-23 22:00:00,74.7,74.7,30.05,NNE,22,7.0,15.0,100,0.00,,,-99.99,WeatherLink 5.5,2013-04-24 02:00:00,
2013-04-23 22:05:00,74.5,74.5,30.06,NNE,22,2.0,9.0,100,0.00,,,-99.99,WeatherLink 5.5,2013-04-24 02:05:00,
2013-04-23 22:10:00,74.5,74.5,30.06,NNE,22,2.0,9.0,100,0.00,,,-99.99,WeatherLink 5.5,2013-04-24 02:10:00,
2013-04-23 22:15:00,74.3,74.3,30.06,NNE,22,3.0,12.0,100,0.00,,,-99.99,WeatherLink 5.5,2013-04-24 02:15:00,
2013-04-23 22:25:00,74.2,74.2,30.06,NNE,22,2.0,7.0,100,0.00,,,-99.99,WeatherLink 5.5,2013-04-24 02:25:00,
2013-04-23 22:35:00,74.2,73.6,30.07,NNE,22,2.0,8.0,98,0.00,,,-99.99,WeatherLink 5.5,2013-04-24 02:35:00,
2013-04-23 22:40:00,74.2,73.9,30.07,NE,45,3.0,9.0,99,0.00,,,-99.99,WeatherLink 5.5,2013-04-24 02:40:00,
2013-04-23 22:45:00,74.2,73.9,30.07,NE,45,3.0,9.0,99,0.00,,,-99.99,WeatherLink 5.5,2013-04-24 02:45:00,
2013-04-23 22:50:00,74.1,73.8,30.07,NE,45,2.0,9.0,99,0.00,,,-99.99,WeatherLink 5.5,2013-04-24 02:50:00,
2013-04-23 23:00:00,74.2,73.6,30.07,NNE,22,2.0,9.0,98,0.00,,,-99.99,WeatherLink 5.5,2013-04-24 03:00:00,
2013-04-23 23:10:00,73.9,73.3,30.07,NNE,22,1.0,8.0,98,0.00,,,-99.99,WeatherLink 5.5,2013-04-24 03:10:00,
2013-04-23 23:15:00,73.9,73.3,30.07,NNE,22,1.0,8.0,98,0.00,,,-99.99,WeatherLink 5.5,2013-04-24 03:15:00,
2013-04-23 23:25:00,73.9,73.6,30.07,North,-999,0.0,0.0,99,0.00,,,-99.99,WeatherLink 5.5,2013-04-24 03:25:00,
2013-04-23 23:30:00,73.6,73.3,30.07,NE,45,2.0,7.0,99,0.00,,,-99.99,WeatherLink 5.5,2013-04-24 03:30:00,
2013-04-23 23:31:00,73.6,73.6,30.06,NE,45,1.0,6.0,100,0.00,,,-99.99,WeatherLink 5.5,2013-04-24 03:31:00,
2013-04-23 23:35:00,73.7,73.1,30.06,NE,45,1.0,5.0,98,0.00,,,-99.99,WeatherLink 5.5,2013-04-24 03:35:00,
2013-04-23 23:40:00,73.7,72.8,30.07,NNE,22,2.0,7.0,97,0.00,,,-99.99,WeatherLink 5.5,2013-04-24 03:40:00,
2013-04-23 23:45:00,73.7,72.5,30.07,NNE,22,2.0,7.0,96,0.00,,,-99.99,WeatherLink 5.5,2013-04-24 03:45:00,
2013-04-23 23:50:00,73.7,72.5,30.07,NNE,22,1.0,7.0,96,0.00,,,-99.99,WeatherLink 5.5,2013-04-24 03:50:00,
2013-04-23 23:55:00,73.7,72.5,30.07,NNE,22,1.0,7.0,96,0.00,,,-99.99,WeatherLink 5.5,2013-04-24 03:55:00,